createdAt,value
2022-08-12T00:00:14.453Z,18.80
2022-08-12T00:01:14.469Z,16.30
2022-08-12T00:02:14.440Z,15.00
2022-08-12T00:03:14.881Z,13.90
2022-08-12T00:04:15.435Z,18.70
2022-08-12T00:05:14.405Z,14.30
2022-08-12T00:06:14.425Z,14.20
2022-08-12T00:07:14.401Z,18.30
2022-08-12T00:08:14.397Z,13.20
2022-08-12T00:09:14.393Z,16.20
2022-08-12T00:10:14.408Z,13.30
2022-08-12T00:11:14.379Z,12.70
2022-08-12T00:12:14.397Z,20.90
2022-08-12T00:13:14.359Z,16.50
2022-08-12T00:14:14.356Z,15.10
2022-08-12T00:15:14.337Z,20.60
2022-08-12T00:16:14.350Z,18.60
2022-08-12T00:17:14.355Z,15.20
2022-08-12T00:18:14.337Z,10.60
2022-08-12T00:19:14.333Z,13.80
2022-08-12T00:20:14.300Z,11.60
2022-08-12T00:21:14.311Z,18.10
2022-08-12T00:22:14.316Z,12.90
2022-08-12T00:23:14.303Z,14.00
2022-08-12T00:24:14.295Z,16.00
2022-08-12T00:25:14.288Z,12.10
2022-08-12T00:26:22.521Z,14.70
2022-08-12T00:27:15.263Z,16.50
2022-08-12T00:28:14.284Z,14.70
2022-08-12T00:29:14.263Z,12.50
2022-08-12T00:30:14.252Z,16.60
2022-08-12T00:31:14.489Z,12.50
2022-08-12T00:32:16.693Z,13.00
2022-08-12T00:33:16.239Z,16.30
2022-08-12T00:34:14.223Z,13.90
2022-08-12T00:35:14.220Z,18.30
2022-08-12T00:36:18.653Z,13.40
2022-08-12T00:37:15.202Z,11.90
2022-08-12T00:38:14.207Z,12.90
2022-08-12T00:39:14.227Z,12.90
2022-08-12T00:40:14.188Z,15.70
2022-08-12T00:41:14.183Z,17.20
2022-08-12T00:42:14.168Z,14.20
2022-08-12T00:43:14.187Z,17.80
2022-08-12T00:44:14.164Z,14.20
2022-08-12T00:45:14.153Z,14.00
2022-08-12T00:46:14.144Z,14.90
2022-08-12T00:47:25.654Z,12.80
2022-08-12T00:48:16.154Z,12.00
2022-08-12T00:49:14.132Z,14.10
2022-08-12T00:50:14.123Z,20.90
2022-08-12T00:51:14.111Z,14.70
2022-08-12T00:52:14.103Z,14.80
2022-08-12T00:53:14.095Z,16.90
2022-08-12T00:54:14.102Z,17.90
2022-08-12T00:55:14.080Z,18.00
2022-08-12T00:56:14.071Z,19.60
2022-08-12T00:57:14.068Z,16.20
2022-08-12T00:58:14.059Z,16.20
2022-08-12T00:59:14.085Z,13.60
2022-08-12T01:00:14.057Z,15.30
2022-08-12T01:01:14.074Z,14.50
2022-08-12T01:02:14.114Z,15.60
2022-08-12T01:03:14.027Z,13.20
2022-08-12T01:04:14.039Z,15.00
2022-08-12T01:05:14.015Z,12.90
2022-08-12T01:06:14.011Z,17.70
2022-08-12T01:07:14.002Z,11.70
2022-08-12T01:08:13.999Z,14.40
2022-08-12T01:09:13.987Z,14.60
2022-08-12T01:10:13.994Z,17.60
2022-08-12T01:11:13.974Z,13.30
2022-08-12T01:12:13.966Z,13.60
2022-08-12T01:13:19.490Z,13.50
2022-08-12T01:14:14.960Z,16.60
2022-08-12T01:15:13.979Z,18.50
2022-08-12T01:16:13.939Z,14.50
2022-08-12T01:17:13.939Z,14.40
2022-08-12T01:18:13.930Z,18.40
2022-08-12T01:19:13.910Z,14.40
2022-08-12T01:20:13.943Z,19.40
2022-08-12T01:21:13.914Z,15.10
2022-08-12T01:22:13.894Z,15.80
2022-08-12T01:23:13.889Z,16.10
2022-08-12T01:24:30.266Z,16.40
2022-08-12T01:25:14.898Z,14.60
2022-08-12T01:26:13.871Z,12.30
2022-08-12T01:27:13.862Z,17.70
2022-08-12T01:28:13.859Z,20.20
2022-08-12T01:29:13.857Z,14.50
2022-08-12T01:30:13.842Z,20.00
2022-08-12T01:31:16.285Z,13.90
2022-08-12T01:32:14.824Z,14.40
2022-08-12T01:33:13.810Z,17.30
2022-08-12T01:34:36.443Z,14.30
2022-08-12T01:35:14.798Z,18.80
2022-08-12T01:36:13.813Z,12.60
2022-08-12T01:37:13.794Z,18.40
2022-08-12T01:38:13.792Z,17.60
2022-08-12T01:39:13.811Z,19.10
2022-08-12T01:40:34.535Z,14.20
2022-08-12T01:41:14.800Z,14.00
2022-08-12T01:42:13.763Z,15.40
2022-08-12T01:43:13.746Z,15.00
2022-08-12T01:44:13.745Z,13.50
2022-08-12T01:45:14.737Z,17.00
2022-08-12T01:46:13.737Z,15.30
2022-08-12T01:47:13.722Z,17.10
2022-08-12T01:48:13.726Z,15.40
2022-08-12T01:49:13.706Z,15.50
2022-08-12T01:50:13.690Z,16.10
2022-08-12T01:51:13.689Z,12.60
2022-08-12T01:52:22.189Z,18.00
2022-08-12T01:53:14.702Z,19.20
2022-08-12T01:54:13.671Z,15.30
2022-08-12T01:55:13.658Z,17.70
2022-08-12T01:56:13.653Z,12.90
2022-08-12T01:57:13.653Z,12.80
2022-08-12T01:58:13.633Z,13.50
2022-08-12T01:59:13.660Z,13.70
2022-08-12T02:00:13.633Z,15.20
2022-08-12T02:01:13.701Z,18.20
2022-08-12T02:02:13.616Z,17.70
2022-08-12T02:03:13.613Z,14.20
2022-08-12T02:04:13.590Z,15.10
2022-08-12T02:05:13.586Z,12.70
2022-08-12T02:06:13.581Z,16.30
2022-08-12T02:07:13.574Z,15.00
2022-08-12T02:08:13.581Z,16.70
2022-08-12T02:09:13.557Z,12.60
2022-08-12T02:10:50.158Z,14.60
2022-08-12T02:11:14.546Z,16.30
2022-08-12T02:12:13.544Z,13.30
2022-08-12T02:13:13.533Z,13.00
2022-08-12T02:14:13.534Z,14.60
2022-08-12T02:15:13.506Z,16.90
2022-08-12T02:16:13.513Z,16.60
2022-08-12T02:17:13.496Z,14.90
2022-08-12T02:18:13.502Z,17.30
2022-08-12T02:19:22.558Z,14.10
2022-08-12T02:20:14.478Z,15.10
2022-08-12T02:21:13.477Z,18.80
2022-08-12T02:22:13.474Z,18.10
2022-08-12T02:23:13.456Z,18.20
2022-08-12T02:24:13.453Z,15.40
2022-08-12T02:25:13.467Z,18.20
2022-08-12T02:26:13.440Z,15.60
2022-08-12T02:27:13.438Z,14.60
2022-08-12T02:28:13.417Z,17.20
2022-08-12T02:29:13.421Z,17.20
2022-08-12T02:30:13.433Z,14.90
2022-08-12T02:31:13.397Z,15.00
2022-08-12T02:32:13.393Z,13.70
2022-08-12T02:33:13.387Z,14.50
2022-08-12T02:34:13.373Z,14.30
2022-08-12T02:35:13.370Z,19.50
2022-08-12T02:36:13.378Z,17.10
2022-08-12T02:37:13.357Z,16.30
2022-08-12T02:38:13.350Z,15.50
2022-08-12T02:39:13.376Z,15.30
2022-08-12T02:40:13.343Z,19.20
2022-08-12T02:41:13.345Z,12.80
2022-08-12T02:42:13.322Z,14.90
2022-08-12T02:43:13.312Z,11.20
2022-08-12T02:44:14.304Z,17.40
2022-08-12T02:45:13.301Z,14.70
2022-08-12T02:46:14.852Z,12.00
2022-08-12T02:47:55.597Z,16.60
2022-08-12T02:48:14.286Z,12.60
2022-08-12T02:49:13.268Z,15.10
2022-08-12T02:50:13.268Z,18.40
2022-08-12T02:51:13.240Z,15.30
2022-08-12T02:52:13.264Z,13.70
2022-08-12T02:53:13.244Z,15.00
2022-08-12T02:54:13.236Z,15.40
2022-08-12T02:55:13.241Z,14.40
2022-08-12T02:56:14.221Z,16.30
2022-08-12T02:57:13.213Z,15.00
2022-08-12T02:58:14.650Z,15.90
2022-08-12T02:59:13.198Z,16.70
2022-08-12T03:00:13.193Z,16.90
2022-08-12T03:01:13.243Z,13.50
2022-08-12T03:02:13.175Z,17.00
2022-08-12T03:03:13.231Z,13.50
2022-08-12T03:04:20.163Z,20.60
2022-08-12T03:05:14.144Z,17.60
2022-08-12T03:06:13.149Z,14.30
2022-08-12T03:07:13.140Z,17.90
2022-08-12T03:08:20.179Z,14.20
2022-08-12T03:09:14.148Z,15.40
2022-08-12T03:10:15.819Z,14.20
2022-08-12T03:11:14.515Z,14.60
2022-08-12T03:12:19.917Z,15.70
2022-08-12T03:13:14.105Z,15.90
2022-08-12T03:14:13.109Z,15.30
2022-08-12T03:15:13.094Z,13.00
2022-08-12T03:16:13.082Z,18.10
2022-08-12T03:17:13.076Z,15.80
2022-08-12T03:18:25.978Z,17.50
2022-08-12T03:19:14.084Z,14.90
2022-08-12T03:20:13.048Z,15.40
2022-08-12T03:21:14.048Z,15.80
2022-08-12T03:22:13.046Z,12.00
2022-08-12T03:23:28.736Z,15.30
2022-08-12T03:24:14.052Z,14.20
2022-08-12T03:25:13.020Z,17.40
2022-08-12T03:26:13.019Z,19.40
2022-08-12T03:27:13.022Z,15.80
2022-08-12T03:28:23.591Z,18.80
2022-08-12T03:29:13.997Z,16.30
2022-08-12T03:30:13.006Z,18.30
2022-08-12T03:31:12.982Z,19.90
2022-08-12T03:32:35.051Z,16.20
2022-08-12T03:33:13.960Z,16.20
2022-08-12T03:34:12.956Z,15.50
2022-08-12T03:35:40.580Z,16.20
2022-08-12T03:36:13.942Z,16.30
2022-08-12T03:37:12.935Z,19.10
2022-08-12T03:38:12.923Z,15.70
2022-08-12T03:39:12.995Z,13.10
2022-08-12T03:40:12.989Z,17.40
2022-08-12T03:41:12.919Z,15.30
2022-08-12T03:42:12.891Z,15.60
2022-08-12T03:43:12.900Z,13.40
2022-08-12T03:44:12.890Z,14.60
2022-08-12T03:45:12.878Z,15.80
2022-08-12T03:46:12.887Z,16.90
2022-08-12T03:47:12.874Z,16.20
2022-08-12T03:48:18.708Z,20.20
2022-08-12T03:49:13.858Z,20.30
2022-08-12T03:50:12.855Z,14.00
2022-08-12T03:51:12.853Z,15.00
2022-08-12T03:52:12.855Z,22.40
2022-08-12T03:53:12.839Z,20.30
2022-08-12T03:54:12.831Z,17.90
2022-08-12T03:55:12.826Z,18.60
2022-08-12T03:56:12.820Z,18.00
2022-08-12T03:57:12.831Z,16.60
2022-08-12T03:58:12.801Z,15.50
2022-08-12T03:59:12.802Z,15.60
2022-08-12T04:00:24.129Z,17.10
2022-08-12T04:01:13.824Z,13.30
2022-08-12T04:02:12.779Z,16.70
2022-08-12T04:03:13.075Z,17.50
2022-08-12T04:04:13.765Z,17.40
2022-08-12T04:05:12.763Z,17.70
2022-08-12T04:06:12.752Z,15.80
2022-08-12T04:07:12.745Z,18.30
2022-08-12T04:08:12.745Z,16.30
2022-08-12T04:09:15.694Z,18.90
2022-08-12T04:10:12.724Z,17.80
2022-08-12T04:11:12.722Z,17.80
2022-08-12T04:12:12.713Z,16.70
2022-08-12T04:13:12.723Z,15.10
2022-08-12T04:14:12.710Z,14.20
2022-08-12T04:15:12.722Z,17.70
2022-08-12T04:16:12.686Z,18.00
2022-08-12T04:17:12.683Z,14.90
2022-08-12T04:18:12.680Z,16.70
2022-08-12T04:19:12.680Z,14.60
2022-08-12T04:20:12.657Z,17.50
2022-08-12T04:21:12.646Z,16.40
2022-08-12T04:22:12.667Z,14.40
2022-08-12T04:23:16.959Z,16.90
2022-08-12T04:24:12.643Z,15.30
2022-08-12T04:25:12.638Z,16.10
2022-08-12T04:26:12.634Z,15.10
2022-08-12T04:27:12.631Z,17.10
2022-08-12T04:28:13.481Z,17.70
2022-08-12T04:29:12.598Z,13.50
2022-08-12T04:30:29.705Z,15.90
2022-08-12T04:31:13.591Z,14.20
2022-08-12T04:32:12.592Z,17.70
2022-08-12T04:33:12.582Z,17.40
2022-08-12T04:34:12.575Z,13.20
2022-08-12T04:35:12.577Z,19.80
2022-08-12T04:36:12.562Z,18.80
2022-08-12T04:37:12.567Z,14.90
2022-08-12T04:38:12.542Z,17.20
2022-08-12T04:39:12.627Z,16.10
2022-08-12T04:40:12.555Z,14.30
2022-08-12T04:41:12.534Z,17.40
2022-08-12T04:42:12.533Z,20.40
2022-08-12T04:44:00.376Z,17.50
2022-08-12T04:44:13.514Z,18.00
2022-08-12T04:45:12.513Z,17.40
2022-08-12T04:46:12.505Z,14.90
2022-08-12T04:47:12.505Z,21.00
2022-08-12T04:48:12.493Z,18.00
2022-08-12T04:49:12.495Z,17.60
2022-08-12T04:50:35.015Z,17.40
2022-08-12T04:51:13.471Z,23.60
2022-08-12T04:52:12.474Z,22.00
2022-08-12T04:53:12.462Z,18.20
2022-08-12T04:54:12.454Z,17.20
2022-08-12T04:55:12.461Z,19.20
2022-08-12T04:56:12.448Z,24.40
2022-08-12T04:57:12.465Z,19.20
2022-08-12T04:58:12.434Z,16.80
2022-08-12T04:59:12.426Z,21.10
2022-08-12T05:00:12.434Z,15.60
2022-08-12T05:01:12.406Z,17.10
2022-08-12T05:02:16.945Z,22.10
2022-08-12T05:03:13.397Z,24.50
2022-08-12T05:04:12.393Z,21.50
2022-08-12T05:05:12.385Z,22.90
2022-08-12T05:06:12.401Z,30.40
2022-08-12T05:07:13.381Z,32.90
2022-08-12T05:08:12.378Z,42.60
2022-08-12T05:09:13.621Z,32.90
2022-08-12T05:10:13.159Z,38.70
2022-08-12T05:11:12.358Z,38.00
2022-08-12T05:12:12.350Z,23.80
2022-08-12T05:13:12.381Z,35.50
2022-08-12T05:14:12.330Z,27.00
2022-08-12T05:15:21.277Z,27.50
2022-08-12T05:16:14.344Z,32.40
2022-08-12T05:17:12.318Z,25.50
2022-08-12T05:18:19.649Z,24.10
2022-08-12T05:19:18.708Z,24.30
2022-08-12T05:20:13.305Z,19.00
2022-08-12T05:21:12.290Z,34.90
2022-08-12T05:22:12.277Z,27.80
2022-08-12T05:23:13.627Z,29.80
2022-08-12T05:24:13.293Z,25.20
2022-08-12T05:25:12.264Z,29.90
2022-08-12T05:26:12.245Z,24.00
2022-08-12T05:27:12.253Z,26.50
2022-08-12T05:28:12.245Z,24.80
2022-08-12T05:30:06.534Z,25.40
2022-08-12T05:30:13.233Z,27.90
2022-08-12T05:31:12.217Z,24.70
2022-08-12T05:32:12.206Z,24.40
2022-08-12T05:33:12.212Z,29.00
2022-08-12T05:34:12.211Z,24.70
2022-08-12T05:35:12.197Z,24.00
2022-08-12T05:36:12.189Z,21.10
2022-08-12T05:37:12.170Z,21.60
2022-08-12T05:38:12.169Z,19.60
2022-08-12T05:39:12.211Z,24.20
2022-08-12T05:40:12.164Z,18.70
2022-08-12T05:41:12.153Z,19.80
2022-08-12T05:42:12.146Z,17.40
2022-08-12T05:43:12.133Z,20.90
2022-08-12T05:44:12.125Z,17.50
2022-08-12T05:45:12.113Z,19.40
2022-08-12T05:46:12.117Z,20.00
2022-08-12T05:47:12.105Z,17.40
2022-08-12T05:48:12.104Z,15.80
2022-08-12T05:49:12.159Z,23.10
2022-08-12T05:50:12.081Z,16.90
2022-08-12T05:51:12.098Z,19.40
2022-08-12T05:52:12.070Z,16.40
2022-08-12T05:53:13.078Z,16.10
2022-08-12T05:54:12.167Z,16.80
2022-08-12T05:55:12.053Z,16.00
2022-08-12T05:56:12.058Z,17.80
2022-08-12T05:57:12.033Z,14.00
2022-08-12T05:58:12.029Z,19.50
2022-08-12T05:59:12.128Z,16.20
2022-08-12T06:00:12.017Z,16.90
2022-08-12T06:02:09.254Z,19.30
2022-08-12T06:02:13.754Z,14.50
2022-08-12T06:03:13.054Z,16.90
2022-08-12T06:04:11.990Z,14.20
2022-08-12T06:05:11.973Z,16.70
2022-08-12T06:06:11.986Z,19.10
2022-08-12T06:08:00.004Z,15.00
2022-08-12T06:08:12.957Z,15.10
2022-08-12T06:09:11.945Z,18.10
2022-08-12T06:10:11.958Z,17.10
2022-08-12T06:11:11.933Z,19.20
2022-08-12T06:12:11.941Z,13.00
2022-08-12T06:13:11.921Z,18.40
2022-08-12T06:14:12.344Z,14.90
2022-08-12T06:15:11.902Z,18.00
2022-08-12T06:16:11.897Z,16.50
2022-08-12T06:17:11.905Z,19.20
2022-08-12T06:18:15.926Z,21.00
2022-08-12T06:19:11.885Z,21.80
2022-08-12T06:20:28.344Z,16.70
2022-08-12T06:21:12.866Z,13.20
2022-08-12T06:22:11.853Z,16.00
2022-08-12T06:23:12.113Z,13.90
2022-08-12T06:24:11.841Z,17.50
2022-08-12T06:25:17.524Z,14.70
2022-08-12T06:26:13.101Z,16.70
2022-08-12T06:27:11.817Z,19.60
2022-08-12T06:28:11.801Z,16.30
2022-08-12T06:29:12.810Z,14.90
2022-08-12T06:30:17.196Z,16.90
2022-08-12T06:31:29.237Z,14.40
2022-08-12T06:32:13.790Z,14.50
2022-08-12T06:33:21.495Z,18.10
2022-08-12T06:35:26.534Z,15.60
2022-08-12T06:35:26.966Z,19.50
2022-08-12T06:36:12.762Z,18.60
2022-08-12T06:37:11.777Z,19.10
2022-08-12T06:38:11.766Z,19.00
2022-08-12T06:39:14.759Z,18.40
2022-08-12T06:40:11.722Z,20.10
2022-08-12T06:41:11.733Z,17.80
2022-08-12T06:42:31.803Z,17.40
2022-08-12T06:43:12.705Z,21.20
2022-08-12T06:44:11.712Z,16.40
2022-08-12T06:45:12.520Z,21.00
2022-08-12T06:46:12.693Z,17.30
2022-08-12T06:47:11.682Z,19.50
2022-08-12T06:48:11.681Z,19.70
2022-08-12T06:49:11.666Z,17.70
2022-08-12T06:50:11.655Z,15.20
2022-08-12T06:51:11.661Z,20.30
2022-08-12T06:52:11.673Z,18.30
2022-08-12T06:53:11.646Z,17.70
2022-08-12T06:54:11.641Z,15.50
2022-08-12T06:55:11.626Z,17.60
2022-08-12T06:56:12.632Z,25.70
2022-08-12T06:58:05.662Z,20.80
2022-08-12T06:58:12.603Z,17.90
2022-08-12T06:59:11.613Z,21.90
2022-08-12T07:00:11.598Z,17.20
2022-08-12T07:01:11.648Z,20.30
2022-08-12T07:02:11.597Z,15.70
2022-08-12T07:03:22.661Z,17.50
2022-08-12T07:04:33.898Z,21.80
2022-08-12T07:05:13.557Z,17.40
2022-08-12T07:06:11.548Z,16.80
2022-08-12T07:07:11.562Z,16.50
2022-08-12T07:08:11.533Z,19.70
2022-08-12T07:09:15.939Z,21.90
2022-08-12T07:10:13.511Z,20.20
2022-08-12T07:11:11.517Z,18.80
2022-08-12T07:12:11.570Z,20.30
2022-08-12T07:13:11.524Z,20.00
2022-08-12T07:14:13.465Z,22.80
2022-08-12T07:15:11.490Z,20.30
2022-08-12T07:16:11.478Z,16.50
2022-08-12T07:17:11.474Z,29.10
2022-08-12T07:18:11.481Z,20.30
2022-08-12T07:19:11.468Z,23.60
2022-08-12T07:20:29.759Z,16.20
2022-08-12T07:21:13.458Z,22.00
2022-08-12T07:22:11.450Z,20.80
2022-08-12T07:23:11.446Z,15.50
2022-08-12T07:24:11.424Z,19.00
2022-08-12T07:25:11.421Z,19.80
2022-08-12T07:26:11.409Z,20.00
2022-08-12T07:27:11.417Z,20.60
2022-08-12T07:28:16.829Z,30.80
2022-08-12T07:29:12.390Z,24.20
2022-08-12T07:30:11.394Z,26.20
2022-08-12T07:31:11.387Z,17.30
2022-08-12T07:32:11.373Z,23.90
2022-08-12T07:33:11.373Z,23.20
2022-08-12T07:34:11.381Z,25.70
2022-08-12T07:35:11.344Z,17.30
2022-08-12T07:36:11.345Z,23.50
2022-08-12T07:37:11.341Z,17.50
2022-08-12T07:38:11.339Z,27.30
2022-08-12T07:39:11.365Z,19.60
2022-08-12T07:40:11.348Z,26.70
2022-08-12T07:41:15.599Z,21.00
2022-08-12T07:42:11.307Z,25.20
2022-08-12T07:43:11.309Z,25.40
2022-08-12T07:44:11.301Z,20.10
2022-08-12T07:45:11.297Z,25.00
2022-08-12T07:46:11.289Z,23.20
2022-08-12T07:47:12.659Z,22.80
2022-08-12T07:48:11.265Z,16.30
2022-08-12T07:49:11.273Z,17.10
2022-08-12T07:50:11.258Z,22.40
2022-08-12T07:51:12.253Z,12.10
2022-08-12T07:52:12.286Z,30.50
2022-08-12T07:53:11.345Z,19.20
2022-08-12T07:54:11.238Z,18.80
2022-08-12T07:55:11.235Z,20.60
2022-08-12T07:56:11.218Z,14.10
2022-08-12T07:57:11.213Z,20.20
2022-08-12T07:58:11.231Z,19.20
2022-08-12T07:59:11.233Z,14.80
2022-08-12T08:00:11.196Z,16.20
2022-08-12T08:01:11.832Z,16.10
2022-08-12T08:02:11.258Z,14.40
2022-08-12T08:03:11.202Z,16.70
2022-08-12T08:04:15.147Z,18.90
2022-08-12T08:05:12.173Z,18.60
2022-08-12T08:06:18.985Z,18.60
2022-08-12T08:07:12.161Z,11.70
2022-08-12T08:08:11.153Z,15.40
2022-08-12T08:09:11.145Z,11.70
2022-08-12T08:10:11.141Z,19.30
2022-08-12T08:11:11.140Z,15.80
2022-08-12T08:12:19.352Z,19.40
2022-08-12T08:13:12.128Z,16.70
2022-08-12T08:14:11.140Z,22.20
2022-08-12T08:15:11.101Z,15.10
2022-08-12T08:16:11.106Z,18.70
2022-08-12T08:17:11.100Z,12.60
2022-08-12T08:18:11.079Z,12.40
2022-08-12T08:19:11.101Z,16.70
2022-08-12T08:20:11.077Z,11.30
2022-08-12T08:21:11.062Z,16.30
2022-08-12T08:22:12.069Z,10.40
2022-08-12T08:23:11.062Z,17.40
2022-08-12T08:24:11.054Z,18.70
2022-08-12T08:25:34.643Z,13.50
2022-08-12T08:26:12.047Z,15.90
2022-08-12T08:27:11.038Z,17.30
2022-08-12T08:28:11.032Z,13.80
2022-08-12T08:29:11.041Z,14.40
2022-08-12T08:30:11.013Z,24.70
2022-08-12T08:31:11.027Z,16.60
2022-08-12T08:32:11.011Z,11.90
2022-08-12T08:34:04.216Z,12.80
2022-08-12T08:34:40.204Z,10.20
2022-08-12T08:35:12.992Z,18.00
2022-08-12T08:36:23.982Z,12.10
2022-08-12T08:37:15.527Z,15.00
2022-08-12T08:38:12.548Z,18.00
2022-08-12T08:39:10.995Z,17.70
2022-08-12T08:40:10.980Z,14.40
2022-08-12T08:41:10.961Z,16.10
2022-08-12T08:42:16.798Z,22.80
2022-08-12T08:43:11.949Z,15.80
2022-08-12T08:44:11.560Z,11.80
2022-08-12T08:45:11.036Z,15.20
2022-08-12T08:46:10.936Z,17.80
2022-08-12T08:47:10.940Z,9.60
2022-08-12T08:48:10.943Z,15.10
2022-08-12T08:49:10.904Z,9.20
2022-08-12T08:50:10.909Z,17.30
2022-08-12T08:51:10.913Z,12.90
2022-08-12T08:52:10.912Z,12.90
2022-08-12T08:53:10.888Z,16.50
2022-08-12T08:54:10.888Z,14.80
2022-08-12T08:55:10.877Z,7.20
2022-08-12T08:56:10.880Z,9.60
2022-08-12T08:57:10.895Z,10.80
2022-08-12T08:58:10.869Z,11.40
2022-08-12T08:59:10.865Z,11.30
2022-08-12T09:00:10.857Z,8.70
2022-08-12T09:01:10.970Z,12.10
2022-08-12T09:02:11.927Z,12.40
2022-08-12T09:05:06.950Z,8.70
2022-08-12T09:05:09.713Z,9.60
2022-08-12T09:05:16.343Z,9.00
2022-08-12T09:06:14.508Z,14.70
2022-08-12T09:07:16.624Z,13.70
2022-08-12T09:08:14.529Z,8.20
2022-08-12T09:10:31.323Z,15.10
2022-08-12T09:11:11.800Z,15.70
2022-08-12T09:12:13.336Z,7.20
2022-08-12T09:13:23.353Z,7.40
2022-08-12T09:15:18.985Z,13.70
2022-08-12T09:16:10.793Z,5.80
2022-08-12T09:17:10.769Z,8.90
2022-08-12T09:18:10.792Z,10.50
2022-08-12T09:19:27.609Z,11.10
2022-08-12T09:20:11.753Z,8.00
2022-08-12T09:21:10.768Z,8.70
2022-08-12T09:22:10.740Z,7.80
2022-08-12T09:23:59.788Z,5.50
2022-08-12T09:24:11.737Z,8.80
2022-08-12T09:25:10.729Z,8.60
2022-08-12T09:26:11.726Z,6.00
2022-08-12T09:27:12.275Z,7.90
2022-08-12T09:28:10.942Z,7.90
2022-08-12T09:29:12.331Z,8.30
2022-08-12T09:30:14.131Z,13.20
2022-08-12T09:32:07.820Z,8.60
2022-08-12T09:32:56.593Z,9.90
2022-08-12T09:33:14.757Z,7.70
2022-08-12T09:34:29.836Z,9.70
2022-08-12T09:35:21.866Z,8.60
2022-08-12T09:36:11.669Z,10.70
2022-08-12T09:37:18.649Z,9.20
2022-08-12T09:38:28.248Z,10.30
2022-08-12T09:40:03.554Z,9.90
2022-08-12T09:40:57.841Z,8.00
2022-08-12T09:42:09.225Z,10.20
2022-08-12T09:42:39.158Z,8.90
2022-08-12T09:43:17.457Z,11.90
2022-08-12T09:44:16.964Z,11.00
2022-08-12T09:45:19.424Z,8.70
2022-08-12T09:46:21.509Z,9.50
2022-08-12T09:47:11.610Z,5.20
2022-08-12T09:48:10.605Z,10.80
2022-08-12T09:49:13.215Z,10.00
2022-08-12T09:50:20.303Z,7.40
2022-08-12T09:51:22.086Z,8.80
2022-08-12T09:52:11.591Z,12.80
2022-08-12T09:54:31.496Z,12.80
2022-08-12T09:54:34.111Z,7.90
2022-08-12T09:56:05.458Z,10.30
2022-08-12T09:56:57.056Z,9.10
2022-08-12T09:58:08.086Z,11.60
2022-08-12T09:58:58.848Z,9.60
2022-08-12T09:59:11.561Z,8.20
2022-08-12T10:00:16.138Z,11.00
2022-08-12T10:01:19.688Z,11.30
2022-08-12T10:02:43.069Z,8.80
2022-08-12T10:03:31.922Z,10.10
2022-08-12T10:04:11.812Z,10.20
2022-08-12T10:05:13.780Z,10.40
2022-08-12T10:06:26.956Z,9.60
2022-08-12T10:07:15.064Z,9.30
2022-08-12T10:08:11.512Z,14.20
2022-08-12T10:09:10.521Z,11.20
2022-08-12T10:10:22.639Z,13.20
2022-08-12T10:11:20.033Z,8.90
2022-08-12T10:12:13.171Z,10.70
2022-08-12T10:13:13.177Z,8.80
2022-08-12T10:14:13.470Z,7.60
2022-08-12T10:15:46.333Z,14.90
2022-08-12T10:16:18.707Z,7.60
2022-08-12T10:17:12.449Z,9.50
2022-08-12T10:18:10.444Z,10.40
2022-08-12T10:19:17.031Z,8.00
2022-08-12T10:20:12.130Z,8.00
2022-08-12T10:21:10.511Z,10.20
2022-08-12T10:22:17.270Z,10.10
2022-08-12T10:23:12.701Z,6.80
2022-08-12T10:24:10.444Z,8.60
2022-08-12T10:25:17.570Z,14.80
2022-08-12T10:26:36.960Z,7.20
2022-08-12T10:27:14.086Z,10.70
2022-08-12T10:28:22.035Z,9.00
2022-08-12T10:30:01.959Z,10.00
2022-08-12T10:30:41.908Z,14.30
2022-08-12T10:31:16.557Z,11.00
2022-08-12T10:32:20.933Z,14.40
2022-08-12T10:33:18.060Z,7.50
2022-08-12T10:34:23.632Z,8.30
2022-08-12T10:35:12.411Z,5.80
2022-08-12T10:36:10.410Z,10.10
2022-08-12T10:37:21.005Z,6.10
2022-08-12T10:38:34.247Z,6.90
2022-08-12T10:40:00.698Z,11.60
2022-08-12T10:40:15.735Z,10.90
2022-08-12T10:41:12.380Z,9.70
2022-08-12T10:42:11.375Z,11.50
2022-08-12T10:43:10.396Z,7.30
2022-08-12T10:44:11.371Z,10.70
2022-08-12T10:45:17.073Z,8.60
2022-08-12T10:46:13.710Z,11.50
2022-08-12T10:47:26.216Z,6.90
2022-08-12T10:48:21.804Z,9.80
2022-08-12T10:50:03.623Z,12.80
2022-08-12T10:50:28.302Z,11.00
2022-08-12T10:51:56.473Z,10.70
2022-08-12T10:52:34.082Z,11.30
2022-08-12T10:53:11.282Z,8.00
2022-08-12T10:54:13.126Z,10.00
2022-08-12T10:55:13.473Z,8.20
2022-08-12T10:56:10.271Z,10.20
2022-08-12T10:57:18.153Z,18.00
2022-08-12T10:58:15.062Z,7.60
2022-08-12T10:59:11.575Z,14.20
2022-08-12T11:00:31.125Z,13.30
2022-08-12T11:01:49.575Z,9.60
2022-08-12T11:04:18.135Z,9.60
2022-08-12T11:04:24.605Z,8.20
2022-08-12T11:04:28.475Z,10.10
2022-08-12T11:07:05.358Z,9.80
2022-08-12T11:07:05.910Z,13.30
2022-08-12T11:08:36.639Z,10.40
2022-08-12T11:08:38.074Z,13.20
2022-08-12T11:09:11.456Z,10.60
2022-08-12T11:10:10.245Z,7.60
2022-08-12T11:11:13.650Z,7.70
2022-08-12T11:12:56.675Z,11.50
2022-08-12T11:13:11.183Z,6.70
2022-08-12T11:14:48.025Z,8.90
2022-08-12T11:15:18.997Z,10.20
2022-08-12T11:16:22.175Z,13.90
2022-08-12T11:17:34.115Z,19.50
2022-08-12T11:18:11.694Z,16.50
2022-08-12T11:19:11.154Z,10.70
2022-08-12T11:20:11.018Z,7.90
2022-08-12T11:21:15.903Z,8.60
2022-08-12T11:22:11.151Z,8.60
2022-08-12T11:23:25.167Z,13.30
2022-08-12T11:24:30.539Z,9.20
2022-08-12T11:25:11.497Z,8.60
2022-08-12T11:26:10.109Z,10.90
2022-08-12T11:27:11.403Z,9.20
2022-08-12T11:28:10.147Z,5.00
2022-08-12T11:29:22.847Z,9.90
2022-08-12T11:30:31.371Z,6.30
2022-08-12T11:31:12.245Z,8.80
2022-08-12T11:32:10.070Z,10.30
2022-08-12T11:33:12.000Z,12.20
2022-08-12T11:34:51.106Z,13.50
2022-08-12T11:35:11.648Z,10.40
2022-08-12T11:36:16.672Z,16.60
2022-08-12T11:37:25.477Z,7.80
2022-08-12T11:38:11.017Z,8.70
2022-08-12T11:39:12.537Z,8.00
2022-08-12T11:40:10.019Z,10.70
2022-08-12T11:41:10.001Z,10.70
2022-08-12T11:42:09.993Z,14.20
2022-08-12T11:43:18.744Z,8.90
2022-08-12T11:44:36.765Z,10.20
2022-08-12T11:45:10.989Z,12.90
2022-08-12T11:46:10.005Z,9.10
2022-08-12T11:47:09.970Z,10.60
2022-08-12T11:48:09.965Z,10.30
2022-08-12T11:49:10.999Z,11.20
2022-08-12T11:50:11.720Z,8.20
2022-08-12T11:51:09.952Z,11.30
2022-08-12T11:52:33.929Z,7.90
2022-08-12T11:53:57.199Z,10.30
2022-08-12T11:54:10.943Z,9.00
2022-08-12T11:55:09.937Z,11.60
2022-08-12T11:56:11.405Z,6.80
2022-08-12T11:58:08.122Z,8.20
2022-08-12T11:59:35.817Z,16.50
2022-08-12T12:02:11.926Z,12.80
2022-08-12T12:03:09.941Z,12.00
2022-08-12T12:04:10.410Z,14.80
2022-08-12T12:05:09.889Z,7.60
2022-08-12T12:06:09.867Z,12.80
2022-08-12T12:07:11.326Z,12.70
2022-08-12T12:08:38.083Z,7.60
2022-08-12T12:09:10.860Z,8.00
2022-08-12T12:10:09.876Z,10.40
2022-08-12T12:11:09.849Z,8.60
2022-08-12T12:12:09.845Z,10.60
2022-08-12T12:13:11.632Z,10.60
2022-08-12T12:14:11.553Z,12.10
2022-08-12T12:15:10.831Z,6.50
2022-08-12T12:16:09.806Z,9.60
2022-08-12T12:17:09.839Z,9.00
2022-08-12T12:18:09.815Z,10.90
2022-08-12T12:19:10.023Z,5.00
2022-08-12T12:20:09.793Z,11.60
2022-08-12T12:21:09.792Z,6.70
2022-08-12T12:22:10.143Z,7.70
2022-08-12T12:23:28.831Z,6.30
2022-08-12T12:24:10.776Z,7.00
2022-08-12T12:25:13.787Z,10.50
2022-08-12T12:26:18.536Z,6.60
2022-08-12T12:27:10.757Z,7.40
2022-08-12T12:28:09.755Z,7.90
2022-08-12T12:30:17.721Z,11.10
2022-08-12T12:30:17.963Z,15.80
2022-08-12T12:31:14.972Z,6.10
2022-08-12T12:32:12.273Z,10.80
2022-08-12T12:33:09.727Z,10.00
2022-08-12T12:34:10.709Z,17.40
2022-08-12T12:35:13.561Z,5.80
2022-08-12T12:36:20.588Z,8.20
2022-08-12T12:37:10.689Z,11.00
2022-08-12T12:38:12.165Z,13.90
2022-08-12T12:39:10.545Z,9.60
2022-08-12T12:40:09.671Z,15.40
2022-08-12T12:41:14.217Z,11.90
2022-08-12T12:42:44.332Z,9.70
2022-08-12T12:43:11.081Z,8.80
2022-08-12T12:44:13.316Z,11.30
2022-08-12T12:45:19.475Z,6.40
2022-08-12T12:46:11.628Z,8.30
2022-08-12T12:47:29.398Z,12.00
2022-08-12T12:48:10.617Z,6.10
2022-08-12T12:49:11.175Z,11.10
2022-08-12T12:50:09.613Z,15.10
2022-08-12T12:51:10.605Z,10.40
2022-08-12T12:52:18.586Z,12.30
2022-08-12T12:53:10.585Z,8.10
2022-08-12T12:54:10.612Z,6.80
2022-08-12T12:55:10.583Z,8.90
2022-08-12T12:56:09.570Z,11.70
2022-08-12T12:57:09.565Z,10.90
2022-08-12T12:58:09.559Z,8.40
2022-08-12T12:59:55.126Z,12.00
2022-08-12T13:00:10.552Z,9.50
2022-08-12T13:01:26.864Z,10.50